Time;durP1;ratioP1;P1;durP2;ratioP2;P2;SDS_P1;SDS_P2;PMS_P1;PMS_P2;Temp;Humidity;BMP_temperature;BMP_pressure;BME280_temperature;BME280_humidity;BME280_pressure;Samples;Min_cycle;Max_cycle;Signal;HPM_P1;HPM_P2
2024/02/28 00:01:35;;;;;;;24.67;14.90;;;4.70;99.90;;;;;;5042935;28;20025;-33
2024/02/28 00:04:01;;;;;;;24.42;14.85;;;4.70;99.90;;;;;;5041824;28;20025;-35
2024/02/28 00:06:26;;;;;;;22.90;12.98;;;4.70;99.90;;;;;;5043139;28;20059;-36
2024/02/28 00:08:54;;;;;;;21.77;12.80;;;4.70;99.90;;;;;;5042627;28;20074;-35
2024/02/28 00:11:20;;;;;;;21.15;12.82;;;4.60;99.90;;;;;;5042090;28;20449;-35
2024/02/28 00:13:46;;;;;;;25.60;15.02;;;4.60;99.90;;;;;;5042745;28;20114;-33
2024/02/28 00:16:11;;;;;;;24.52;15.02;;;4.60;99.90;;;;;;5042501;28;20833;-34
2024/02/28 00:18:37;;;;;;;27.20;15.57;;;4.60;99.90;;;;;;5042235;28;20028;-35
2024/02/28 00:21:03;;;;;;;23.85;12.82;;;4.60;99.90;;;;;;5043229;28;20113;-34
2024/02/28 00:23:33;;;;;;;23.17;13.85;;;4.60;99.90;;;;;;5042700;28;20507;-31
2024/02/28 00:25:59;;;;;;;24.52;14.18;;;4.50;99.90;;;;;;5042524;28;20028;-34
2024/02/28 00:28:24;;;;;;;25.08;15.38;;;4.50;99.90;;;;;;5041906;28;20028;-34
2024/02/28 00:30:50;;;;;;;28.80;15.27;;;4.50;99.90;;;;;;5043416;28;20033;-33
2024/02/28 00:33:15;;;;;;;24.92;15.13;;;4.50;99.90;;;;;;5042056;28;20032;-31
2024/02/28 00:35:41;;;;;;;25.77;14.88;;;4.50;99.90;;;;;;5042769;28;20841;-35
2024/02/28 00:38:06;;;;;;;25.73;14.55;;;4.50;99.90;;;;;;5041531;28;20504;-35
2024/02/28 00:40:32;;;;;;;31.92;16.10;;;4.60;99.90;;;;;;5042757;28;20028;-39
2024/02/28 00:42:58;;;;;;;25.80;14.25;;;4.50;99.90;;;;;;5043302;28;20078;-32
2024/02/28 00:45:23;;;;;;;25.90;15.20;;;4.60;99.90;;;;;;5041376;28;20017;-32
2024/02/28 00:47:49;;;;;;;37.13;15.75;;;4.50;99.90;;;;;;5042894;28;20388;-37
2024/02/28 00:50:14;;;;;;;26.13;14.85;;;4.50;99.90;;;;;;5042116;28;20033;-33
2024/02/28 00:52:41;;;;;;;24.38;14.75;;;4.50;99.90;;;;;;5042119;28;20115;-32
2024/02/28 00:55:07;;;;;;;26.58;16.30;;;4.50;99.90;;;;;;5042206;28;20039;-36
2024/02/28 00:57:32;;;;;;;30.35;15.68;;;4.50;99.90;;;;;;5041918;28;20063;-36
2024/02/28 00:59:58;;;;;;;29.50;16.75;;;4.50;99.90;;;;;;5042261;28;20127;-33
2024/02/28 01:02:23;;;;;;;26.23;15.40;;;4.50;99.90;;;;;;5042395;28;20060;-34
2024/02/28 01:04:49;;;;;;;28.25;15.43;;;4.50;99.90;;;;;;5042509;28;20028;-37
2024/02/28 01:07:14;;;;;;;22.42;13.85;;;4.50;99.90;;;;;;5041765;28;20037;-34
2024/02/28 01:09:40;;;;;;;29.70;15.88;;;4.50;99.90;;;;;;5042465;28;20024;-37
2024/02/28 01:12:06;;;;;;;26.83;15.13;;;4.50;99.90;;;;;;5042014;28;20076;-34
2024/02/28 01:14:31;;;;;;;26.73;14.88;;;4.50;99.90;;;;;;5040997;28;20028;-34
2024/02/28 01:16:57;;;;;;;28.20;15.57;;;4.50;99.90;;;;;;5041809;28;20025;-35
2024/02/28 01:19:22;;;;;;;25.17;15.48;;;4.50;99.90;;;;;;5041494;28;20017;-36
2024/02/28 01:21:48;;;;;;;25.85;15.15;;;4.50;99.90;;;;;;5041216;28;20029;-37
2024/02/28 01:24:13;;;;;;;23.08;14.05;;;4.50;99.90;;;;;;5041689;28;20102;-33
2024/02/28 01:26:42;;;;;;;26.40;15.25;;;4.50;99.90;;;;;;5040925;28;20029;-32
2024/02/28 01:29:08;;;;;;;28.30;15.98;;;4.50;99.90;;;;;;5040780;28;20025;-36
2024/02/28 01:31:33;;;;;;;27.65;15.80;;;4.50;99.90;;;;;;5040241;28;20044;-31
2024/02/28 01:33:59;;;;;;;27.23;15.43;;;4.50;99.90;;;;;;5041121;28;20024;-36
2024/02/28 01:36:36;;;;;;;27.10;14.77;;;4.50;99.90;;;;;;5039614;28;20029;-36
2024/02/28 01:39:03;;;;;;;25.17;14.20;;;4.50;99.90;;;;;;5040369;28;20037;-35
2024/02/28 01:41:28;;;;;;;21.67;13.77;;;4.50;99.90;;;;;;5039439;28;20055;-34
2024/02/28 01:43:54;;;;;;;23.10;14.00;;;4.50;99.90;;;;;;5039878;28;20506;-36
2024/02/28 01:46:31;;;;;;;21.08;13.30;;;4.50;99.90;;;;;;5040191;28;20021;-36
2024/02/28 01:48:58;;;;;;;22.08;13.27;;;4.50;99.90;;;;;;5040457;28;20071;-37
2024/02/28 01:51:25;;;;;;;24.13;13.07;;;4.50;99.90;;;;;;5040194;28;20031;-34
2024/02/28 01:53:53;;;;;;;23.13;13.88;;;4.50;99.90;;;;;;5041105;28;20551;-37
2024/02/28 01:56:19;;;;;;;20.40;13.38;;;4.40;99.90;;;;;;5040179;28;20028;-35
2024/02/28 01:58:47;;;;;;;21.08;12.70;;;4.40;99.90;;;;;;5040757;28;20036;-35
2024/02/28 02:01:17;;;;;;;23.33;14.15;;;4.40;99.90;;;;;;5040727;28;20033;-36
2024/02/28 02:03:43;;;;;;;22.85;12.93;;;4.40;99.90;;;;;;5040774;28;20052;-34
2024/02/28 02:06:09;;;;;;;26.77;12.60;;;4.30;99.90;;;;;;5041220;28;20064;-31
2024/02/28 02:08:37;;;;;;;21.10;13.40;;;4.30;99.90;;;;;;5041250;28;20036;-34
2024/02/28 02:11:03;;;;;;;23.75;11.25;;;4.30;99.90;;;;;;5040565;28;20090;-36
2024/02/28 02:13:28;;;;;;;36.33;12.10;;;4.30;99.90;;;;;;5040524;28;20091;-35
2024/02/28 02:15:54;;;;;;;17.48;11.63;;;4.30;99.90;;;;;;5041157;28;20510;-35
2024/02/28 02:18:20;;;;;;;19.23;12.15;;;4.30;99.90;;;;;;5039590;28;20035;-34
2024/02/28 02:20:54;;;;;;;26.27;13.50;;;4.20;99.90;;;;;;5040846;28;20033;-34
2024/02/28 02:23:20;;;;;;;22.25;13.27;;;4.20;99.90;;;;;;5039959;28;20079;-36
2024/02/28 02:25:49;;;;;;;19.45;11.90;;;4.20;99.90;;;;;;5040999;28;20399;-36
2024/02/28 02:28:15;;;;;;;26.13;12.55;;;4.20;99.90;;;;;;5040737;28;20029;-36
2024/02/28 02:30:45;;;;;;;24.63;11.65;;;4.20;99.90;;;;;;5039947;28;20037;-37
2024/02/28 02:33:10;;;;;;;20.90;11.52;;;4.20;99.90;;;;;;5040188;28;20030;-35
2024/02/28 02:35:37;;;;;;;23.75;12.88;;;4.20;99.90;;;;;;5040094;28;20025;-33
2024/02/28 02:38:02;;;;;;;33.88;13.20;;;4.20;99.90;;;;;;5039677;28;20432;-34
2024/02/28 02:40:28;;;;;;;25.38;13.05;;;4.20;99.90;;;;;;5039941;28;20094;-33
2024/02/28 02:42:53;;;;;;;39.63;14.55;;;4.20;99.90;;;;;;5040566;28;20560;-35
2024/02/28 02:45:19;;;;;;;18.95;13.00;;;4.20;99.90;;;;;;5038931;28;20463;-34
2024/02/28 02:47:45;;;;;;;25.13;13.23;;;4.20;99.90;;;;;;5039927;28;20025;-35
2024/02/28 02:50:13;;;;;;;29.00;13.40;;;4.20;99.90;;;;;;5040221;28;20033;-38
2024/02/28 02:52:41;;;;;;;25.33;13.43;;;4.20;99.90;;;;;;5039481;28;20047;-36
2024/02/28 02:55:07;;;;;;;26.45;12.68;;;4.20;99.90;;;;;;5040096;28;20056;-36
2024/02/28 02:57:33;;;;;;;37.53;14.15;;;4.30;99.90;;;;;;5040517;28;20048;-36
2024/02/28 02:59:58;;;;;;;20.73;12.05;;;4.20;99.90;;;;;;5038609;28;20087;-33
2024/02/28 03:02:24;;;;;;;21.95;11.50;;;4.20;99.90;;;;;;5039575;28;20163;-35
2024/02/28 03:04:52;;;;;;;23.02;11.90;;;4.20;99.90;;;;;;5039931;28;20025;-35
2024/02/28 03:07:18;;;;;;;27.08;11.25;;;4.10;99.90;;;;;;5039195;28;20144;-36
2024/02/28 03:09:43;;;;;;;23.08;11.23;;;4.10;99.90;;;;;;5039560;28;20039;-32
2024/02/28 03:12:12;;;;;;;22.75;11.80;;;4.10;99.90;;;;;;5039612;28;20156;-36
2024/02/28 03:14:37;;;;;;;25.77;10.88;;;4.00;99.90;;;;;;5038946;28;20597;-36
2024/02/28 03:17:03;;;;;;;18.10;11.18;;;4.00;99.90;;;;;;5040082;28;20029;-36
2024/02/28 03:19:29;;;;;;;15.98;11.20;;;4.00;99.90;;;;;;5039628;28;20029;-32
2024/02/28 03:21:54;;;;;;;22.23;11.13;;;4.00;99.90;;;;;;5039130;28;20518;-33
2024/02/28 03:24:20;;;;;;;19.98;11.20;;;4.00;99.90;;;;;;5038452;28;20241;-37
2024/02/28 03:26:46;;;;;;;31.77;12.02;;;4.00;99.90;;;;;;5039655;28;20037;-38
2024/02/28 03:29:12;;;;;;;30.77;12.57;;;3.90;99.90;;;;;;5038703;28;20135;-36
2024/02/28 03:31:37;;;;;;;19.67;12.07;;;4.00;99.90;;;;;;5039170;28;20083;-33
2024/02/28 03:34:03;;;;;;;18.77;12.60;;;4.00;99.90;;;;;;5039605;28;20178;-37
2024/02/28 03:36:32;;;;;;;20.90;11.02;;;4.00;99.90;;;;;;5039330;28;20135;-35
2024/02/28 03:38:58;;;;;;;17.80;11.55;;;4.00;99.90;;;;;;5040133;28;20029;-35
2024/02/28 03:41:24;;;;;;;21.67;12.50;;;4.00;99.90;;;;;;5038472;28;20711;-32
2024/02/28 03:43:49;;;;;;;20.17;12.23;;;3.90;99.90;;;;;;5039411;28;20070;-33
2024/02/28 03:46:15;;;;;;;17.40;12.13;;;4.00;99.90;;;;;;5038708;28;20041;-31
2024/02/28 03:48:40;;;;;;;22.58;12.60;;;4.00;99.90;;;;;;5038529;28;20032;-34
2024/02/28 03:51:06;;;;;;;18.92;12.00;;;3.90;99.90;;;;;;5039165;28;20037;-36
2024/02/28 03:53:32;;;;;;;22.50;12.20;;;3.90;99.90;;;;;;5020284;28;20492;-33
2024/02/28 03:55:58;;;;;;;19.63;12.70;;;3.90;99.90;;;;;;5033394;28;20037;-32
2024/02/28 03:58:23;;;;;;;23.35;13.80;;;3.90;99.90;;;;;;5039411;28;20032;-35
2024/02/28 04:00:49;;;;;;;18.20;11.70;;;3.90;99.90;;;;;;5039267;28;20035;-35
2024/02/28 04:03:15;;;;;;;18.15;12.15;;;3.90;99.90;;;;;;5038380;28;20041;-33
2024/02/28 04:05:42;;;;;;;21.45;11.88;;;4.00;99.90;;;;;;5039408;28;20115;-34
2024/02/28 04:08:07;;;;;;;25.83;12.25;;;3.90;99.90;;;;;;5039897;28;20036;-33
2024/02/28 04:10:33;;;;;;;21.52;11.60;;;3.90;99.90;;;;;;5039672;28;20033;-33
2024/02/28 04:12:59;;;;;;;15.90;10.93;;;3.90;99.90;;;;;;5042990;28;20403;-34
2024/02/28 04:15:26;;;;;;;21.90;12.13;;;3.90;99.90;;;;;;5043080;28;20082;-32
2024/02/28 04:17:52;;;;;;;19.92;12.02;;;3.90;99.90;;;;;;5042597;28;20494;-34
2024/02/28 04:20:17;;;;;;;17.10;12.63;;;3.90;99.90;;;;;;5043493;28;20051;-35
2024/02/28 04:22:43;;;;;;;18.45;11.73;;;3.90;99.90;;;;;;5043320;28;20214;-33
2024/02/28 04:25:09;;;;;;;18.08;11.57;;;4.00;99.90;;;;;;5042901;28;20496;-35
2024/02/28 04:27:35;;;;;;;19.75;11.90;;;4.00;99.90;;;;;;5043064;28;20499;-34
2024/02/28 04:30:01;;;;;;;27.88;11.65;;;4.00;99.90;;;;;;5043181;28;20036;-35
2024/02/28 04:32:26;;;;;;;16.90;11.85;;;3.90;99.90;;;;;;5041539;28;20041;-31
2024/02/28 04:34:52;;;;;;;21.35;12.13;;;4.00;99.90;;;;;;5043678;28;20102;-34
2024/02/28 04:37:17;;;;;;;19.50;12.68;;;3.90;99.90;;;;;;5042010;28;20032;-36
2024/02/28 04:39:43;;;;;;;23.45;12.07;;;4.00;99.90;;;;;;5042984;28;20029;-31
2024/02/28 04:42:09;;;;;;;21.17;12.65;;;4.00;99.90;;;;;;5042351;28;20028;-33
2024/02/28 04:44:34;;;;;;;17.83;12.35;;;4.00;99.90;;;;;;5041437;28;20037;-35
2024/02/28 04:47:02;;;;;;;19.80;13.20;;;4.00;99.90;;;;;;5043081;28;20853;-35
2024/02/28 04:49:28;;;;;;;20.95;13.75;;;4.00;99.90;;;;;;5042720;28;20132;-32
2024/02/28 04:51:54;;;;;;;20.80;12.27;;;4.00;99.90;;;;;;5042052;28;20041;-36
2024/02/28 04:54:19;;;;;;;19.38;12.95;;;4.00;99.90;;;;;;5042108;28;20732;-35
2024/02/28 04:56:46;;;;;;;18.10;12.65;;;4.00;99.90;;;;;;5042111;28;20163;-37
2024/02/28 04:59:14;;;;;;;17.13;12.15;;;3.90;99.90;;;;;;5041207;28;20028;-34
2024/02/28 05:01:41;;;;;;;18.75;13.38;;;3.90;99.90;;;;;;5041387;28;20067;-34
2024/02/28 05:04:08;;;;;;;16.83;12.48;;;3.90;99.90;;;;;;5042063;28;20681;-36
2024/02/28 05:06:34;;;;;;;20.92;14.38;;;3.80;99.90;;;;;;5041953;28;20029;-33
2024/02/28 05:08:59;;;;;;;22.30;13.23;;;3.80;99.90;;;;;;5041896;28;20699;-33
2024/02/28 05:11:32;;;;;;;17.00;12.20;;;3.90;99.90;;;;;;5041610;28;20045;-35
2024/02/28 05:13:57;;;;;;;22.13;13.23;;;3.90;99.90;;;;;;5040706;28;20057;-35
2024/02/28 05:16:23;;;;;;;19.63;13.55;;;3.90;99.90;;;;;;5041446;28;20025;-35
2024/02/28 05:18:49;;;;;;;15.13;11.45;;;3.80;99.90;;;;;;5041711;28;20037;-35
2024/02/28 05:21:14;;;;;;;15.85;11.18;;;3.90;99.90;;;;;;5041247;28;20795;-34
2024/02/28 05:23:40;;;;;;;16.38;10.68;;;3.80;99.90;;;;;;5041075;28;20029;-36
2024/02/28 05:26:06;;;;;;;15.50;10.95;;;3.80;99.90;;;;;;5041681;28;20025;-33
2024/02/28 05:28:34;;;;;;;19.70;12.52;;;3.80;99.90;;;;;;5041397;28;20031;-35
2024/02/28 05:31:03;;;;;;;16.33;11.50;;;3.80;99.90;;;;;;5041622;28;20646;-33
2024/02/28 05:33:29;;;;;;;19.90;13.65;;;3.80;99.90;;;;;;5040691;28;20017;-35
2024/02/28 05:35:55;;;;;;;17.40;13.07;;;3.80;99.90;;;;;;5042074;28;20039;-36
2024/02/28 05:38:20;;;;;;;19.17;12.85;;;3.80;99.90;;;;;;5040891;28;20017;-34
2024/02/28 05:40:46;;;;;;;19.40;13.77;;;3.80;99.90;;;;;;5040986;28;20025;-33
2024/02/28 05:43:14;;;;;;;20.95;12.98;;;3.80;99.90;;;;;;5041490;28;20041;-36
2024/02/28 05:45:40;;;;;;;19.90;13.75;;;3.80;99.90;;;;;;5041065;28;20479;-36
2024/02/28 05:48:05;;;;;;;18.02;12.43;;;3.80;99.90;;;;;;5040398;28;20033;-34
2024/02/28 05:50:32;;;;;;;18.10;13.07;;;3.80;99.90;;;;;;5041044;28;20843;-35
2024/02/28 05:52:59;;;;;;;18.50;12.48;;;3.80;99.90;;;;;;5041975;28;20078;-32
2024/02/28 05:55:26;;;;;;;18.50;12.85;;;3.80;99.90;;;;;;5040415;28;20040;-31
2024/02/28 05:57:51;;;;;;;17.42;12.95;;;3.80;99.90;;;;;;5041897;28;20040;-31
2024/02/28 06:00:17;;;;;;;19.33;13.07;;;3.80;99.90;;;;;;5040882;28;20079;-34
2024/02/28 06:02:43;;;;;;;19.17;13.70;;;3.80;99.90;;;;;;5040285;28;20828;-36
2024/02/28 06:05:08;;;;;;;19.13;13.98;;;3.80;99.90;;;;;;5040901;28;20086;-33
2024/02/28 06:07:34;;;;;;;20.70;13.70;;;3.80;99.90;;;;;;5041068;28;20413;-37
2024/02/28 06:09:59;;;;;;;18.20;12.75;;;3.80;99.90;;;;;;5039977;28;20036;-34
2024/02/28 06:12:25;;;;;;;16.48;12.80;;;3.80;99.90;;;;;;5040061;28;20115;-32
2024/02/28 06:14:51;;;;;;;19.52;13.63;;;3.70;99.90;;;;;;5040712;28;20103;-33
2024/02/28 06:17:16;;;;;;;16.40;12.50;;;3.70;99.90;;;;;;5039985;28;20128;-35
2024/02/28 06:19:42;;;;;;;17.30;12.32;;;3.70;99.90;;;;;;5040536;28;20106;-31
2024/02/28 06:22:07;;;;;;;14.30;10.90;;;3.70;99.90;;;;;;5041098;28;20035;-33
2024/02/28 06:24:36;;;;;;;17.73;12.27;;;3.60;99.90;;;;;;5040182;28;20828;-33
2024/02/28 06:27:02;;;;;;;18.48;13.35;;;3.60;99.90;;;;;;5041139;28;20375;-31
2024/02/28 06:29:27;;;;;;;18.48;13.32;;;3.60;99.90;;;;;;5040244;28;20025;-34
2024/02/28 06:31:55;;;;;;;17.35;12.77;;;3.60;99.90;;;;;;5040167;28;20044;-30
2024/02/28 06:34:22;;;;;;;16.65;11.90;;;3.60;99.90;;;;;;5039518;28;20035;-30
2024/02/28 06:36:48;;;;;;;17.08;12.45;;;3.60;99.90;;;;;;5039635;28;20033;-35
2024/02/28 06:39:13;;;;;;;19.75;13.98;;;3.60;99.90;;;;;;5040090;28;20032;-32
2024/02/28 06:41:39;;;;;;;18.88;12.45;;;3.60;99.90;;;;;;5040517;28;20036;-35
2024/02/28 06:44:04;;;;;;;17.90;12.65;;;3.60;99.90;;;;;;5039922;28;20032;-35
2024/02/28 06:46:30;;;;;;;15.23;11.57;;;3.70;99.90;;;;;;5039912;28;20037;-34
2024/02/28 06:48:55;;;;;;;16.00;11.85;;;3.70;99.90;;;;;;5040604;28;20036;-31
2024/02/28 06:51:21;;;;;;;18.42;12.23;;;3.60;99.90;;;;;;5039085;28;20060;-38
2024/02/28 06:53:47;;;;;;;16.63;12.57;;;3.70;99.90;;;;;;5041074;28;20024;-35
2024/02/28 06:56:12;;;;;;;17.73;12.98;;;3.60;99.90;;;;;;5037860;28;20543;-38
2024/02/28 06:58:38;;;;;;;15.52;12.10;;;3.60;99.90;;;;;;5038883;28;20067;-38
2024/02/28 07:01:04;;;;;;;18.33;13.60;;;3.60;99.90;;;;;;5039163;28;20065;-39
2024/02/28 07:03:29;;;;;;;15.93;11.52;;;3.70;99.90;;;;;;5040622;28;20482;-37
2024/02/28 07:05:55;;;;;;;13.88;10.75;;;3.70;99.90;;;;;;5039661;28;20037;-36
2024/02/28 07:08:21;;;;;;;15.90;11.10;;;3.60;99.90;;;;;;5039446;28;20419;-36
2024/02/28 07:10:53;;;;;;;16.45;12.27;;;3.60;99.90;;;;;;5040141;28;20448;-31
2024/02/28 07:13:21;;;;;;;17.77;12.98;;;3.60;99.90;;;;;;5038463;28;20041;-37
2024/02/28 07:15:50;;;;;;;15.75;12.00;;;3.60;99.90;;;;;;5039631;28;20032;-33
2024/02/28 07:18:16;;;;;;;14.52;11.23;;;3.60;99.90;;;;;;5039245;28;20032;-36
2024/02/28 07:20:44;;;;;;;19.42;13.07;;;3.60;99.90;;;;;;5038895;28;20024;-35
2024/02/28 07:23:10;;;;;;;16.20;11.68;;;3.60;99.90;;;;;;5039056;28;20032;-35
2024/02/28 07:25:36;;;;;;;15.30;11.52;;;3.60;99.90;;;;;;5038647;28;20029;-37
2024/02/28 07:28:02;;;;;;;13.50;10.20;;;3.70;99.90;;;;;;5038472;28;20025;-35
2024/02/28 07:30:28;;;;;;;15.27;11.50;;;3.70;99.90;;;;;;5038347;28;20922;-33
2024/02/28 07:32:54;;;;;;;17.10;12.23;;;3.70;99.90;;;;;;5039627;28;20120;-34
2024/02/28 07:35:20;;;;;;;13.35;10.38;;;3.70;99.90;;;;;;5039635;28;20029;-31
2024/02/28 07:37:46;;;;;;;14.75;11.43;;;3.70;99.90;;;;;;5039695;28;20323;-34
2024/02/28 07:40:12;;;;;;;12.90;11.05;;;3.80;99.90;;;;;;5038810;28;20918;-34
2024/02/28 07:42:38;;;;;;;12.90;10.07;;;3.80;99.90;;;;;;5039811;28;20372;-32
2024/02/28 07:45:04;;;;;;;16.17;10.77;;;3.80;99.90;;;;;;5039140;28;20025;-33
2024/02/28 07:47:29;;;;;;;16.98;12.05;;;3.90;99.90;;;;;;5042595;28;20025;-33
2024/02/28 07:49:55;;;;;;;15.93;11.63;;;3.90;99.90;;;;;;5044382;28;20025;-36
2024/02/28 07:52:21;;;;;;;16.30;11.48;;;4.00;99.90;;;;;;5043000;28;20029;-33
2024/02/28 07:54:46;;;;;;;17.10;12.25;;;4.10;99.90;;;;;;5043100;28;20080;-35
2024/02/28 07:57:12;;;;;;;15.38;12.00;;;4.10;99.90;;;;;;5044071;28;20032;-34
2024/02/28 07:59:44;;;;;;;15.55;11.48;;;4.20;99.90;;;;;;5042400;28;20542;-34
2024/02/28 08:02:13;;;;;;;14.47;11.57;;;4.20;99.90;;;;;;5042454;28;20032;-37
2024/02/28 08:04:39;;;;;;;13.98;10.77;;;4.30;99.90;;;;;;5043034;28;20353;-35
2024/02/28 08:07:06;;;;;;;15.43;12.20;;;4.30;99.90;;;;;;5043179;28;20148;-35
2024/02/28 08:09:31;;;;;;;17.08;11.75;;;4.30;99.90;;;;;;5042268;28;20040;-36
2024/02/28 08:11:58;;;;;;;21.98;14.82;;;4.40;99.90;;;;;;5043160;28;20197;-37
2024/02/28 08:14:24;;;;;;;20.00;14.93;;;4.40;99.90;;;;;;5042763;28;20116;-34
2024/02/28 08:16:52;;;;;;;17.08;12.80;;;4.50;99.90;;;;;;5042336;28;20032;-34
2024/02/28 08:19:17;;;;;;;20.10;13.60;;;4.60;99.90;;;;;;5042341;28;20025;-33
2024/02/28 08:21:43;;;;;;;19.65;14.13;;;4.60;99.90;;;;;;5043052;28;20031;-30
2024/02/28 08:24:08;;;;;;;18.42;13.45;;;4.70;99.90;;;;;;5041951;28;20705;-32
2024/02/28 08:26:35;;;;;;;20.75;15.20;;;4.70;99.90;;;;;;5042808;28;20047;-31
2024/02/28 08:29:01;;;;;;;20.77;15.02;;;4.70;99.90;;;;;;5042847;28;20100;-33
2024/02/28 08:31:27;;;;;;;22.85;15.55;;;4.70;99.90;;;;;;5041682;28;20047;-33
2024/02/28 08:33:53;;;;;;;20.65;14.02;;;4.80;99.90;;;;;;5042815;28;20032;-33
2024/02/28 08:36:18;;;;;;;24.75;16.17;;;4.80;99.90;;;;;;5041599;28;20021;-30
2024/02/28 08:38:44;;;;;;;24.20;16.73;;;4.80;99.90;;;;;;5043294;28;20072;-31
2024/02/28 08:41:10;;;;;;;26.67;17.17;;;4.80;99.90;;;;;;5042457;28;20025;-36
2024/02/28 08:43:39;;;;;;;25.65;15.98;;;4.80;99.90;;;;;;5042306;28;20021;-33
2024/02/28 08:46:05;;;;;;;27.40;17.90;;;4.80;99.90;;;;;;5042102;28;20028;-31
2024/02/28 08:48:32;;;;;;;22.15;14.80;;;4.90;99.90;;;;;;5042773;28;20025;-34
2024/02/28 08:50:58;;;;;;;21.55;14.32;;;4.90;99.90;;;;;;5041670;28;20037;-35
2024/02/28 08:53:23;;;;;;;24.35;15.90;;;5.00;99.90;;;;;;5041795;28;20048;-34
2024/02/28 08:55:49;;;;;;;24.65;15.10;;;5.00;99.90;;;;;;5042460;28;20499;-31
2024/02/28 08:58:14;;;;;;;23.52;16.05;;;5.10;99.90;;;;;;5040612;28;20480;-36
2024/02/28 09:00:40;;;;;;;24.13;15.65;;;5.10;99.90;;;;;;5042104;28;20020;-33
2024/02/28 09:03:06;;;;;;;25.42;16.13;;;5.20;99.90;;;;;;5042076;28;20029;-37
2024/02/28 09:05:31;;;;;;;26.27;17.90;;;5.20;99.90;;;;;;5041270;28;20112;-36
2024/02/28 09:07:57;;;;;;;25.05;17.13;;;5.30;99.90;;;;;;5042172;28;20025;-33
2024/02/28 09:10:24;;;;;;;24.55;15.93;;;5.40;99.90;;;;;;5041817;28;20048;-34
2024/02/28 09:12:50;;;;;;;26.83;17.13;;;5.40;99.90;;;;;;5041398;28;20044;-36
2024/02/28 09:15:16;;;;;;;23.38;16.27;;;5.40;99.90;;;;;;5042450;28;20025;-31
2024/02/28 09:17:42;;;;;;;22.23;15.52;;;5.40;99.90;;;;;;5042167;28;20039;-33
2024/02/28 09:20:08;;;;;;;23.70;16.08;;;5.40;99.90;;;;;;5041679;28;20016;-33
2024/02/28 09:22:34;;;;;;;26.35;15.73;;;5.40;99.90;;;;;;5042100;28;20104;-35
2024/02/28 09:25:04;;;;;;;22.77;15.95;;;5.50;99.90;;;;;;5041869;28;20052;-35
2024/02/28 09:27:30;;;;;;;24.25;17.17;;;5.40;99.90;;;;;;5040631;28;20059;-36
2024/02/28 09:29:55;;;;;;;28.17;18.30;;;5.50;99.90;;;;;;5040216;28;20040;-32
2024/02/28 09:32:21;;;;;;;25.73;16.73;;;5.50;99.90;;;;;;5041395;28;20025;-33
2024/02/28 09:34:47;;;;;;;24.30;16.63;;;5.50;99.90;;;;;;5041458;28;20035;-35
2024/02/28 09:37:14;;;;;;;27.10;17.70;;;5.40;99.90;;;;;;5042356;28;20797;-32
2024/02/28 09:39:40;;;;;;;24.40;16.17;;;5.40;99.90;;;;;;5041243;28;20824;-35
2024/02/28 09:42:09;;;;;;;23.67;14.50;;;5.50;99.90;;;;;;5041076;28;20029;-34
2024/02/28 09:44:36;;;;;;;22.38;14.73;;;5.50;99.90;;;;;;5041232;28;20031;-33
2024/02/28 09:47:03;;;;;;;26.50;17.38;;;5.50;99.90;;;;;;5040861;28;20021;-29
2024/02/28 09:49:37;;;;;;;21.35;13.73;;;5.60;99.90;;;;;;5041014;28;20033;-33
2024/02/28 09:52:03;;;;;;;19.77;13.52;;;5.60;99.90;;;;;;5041469;28;20036;-30
2024/02/28 09:54:29;;;;;;;21.10;14.75;;;5.60;99.90;;;;;;5039552;28;20029;-34
2024/02/28 09:56:59;;;;;;;23.67;16.63;;;5.70;99.90;;;;;;5041508;28;20098;-34
2024/02/28 09:59:25;;;;;;;25.38;17.67;;;5.70;99.90;;;;;;5040820;28;20112;-34
2024/02/28 10:02:00;;;;;;;25.45;17.67;;;5.80;99.90;;;;;;5041099;28;20104;-35
2024/02/28 10:04:29;;;;;;;24.75;17.40;;;5.90;99.90;;;;;;5041054;28;20021;-36
2024/02/28 10:06:56;;;;;;;22.98;16.73;;;5.90;99.90;;;;;;5040861;28;20106;-36
2024/02/28 10:09:21;;;;;;;24.10;16.38;;;6.00;99.90;;;;;;5040327;28;20462;-34
2024/02/28 10:11:47;;;;;;;24.17;16.90;;;6.00;99.90;;;;;;5041032;28;20027;-34
2024/02/28 10:14:18;;;;;;;24.52;16.25;;;6.10;99.90;;;;;;5041350;28;20032;-36
2024/02/28 10:16:44;;;;;;;27.13;18.02;;;6.10;99.90;;;;;;5041004;28;20067;-34
2024/02/28 10:19:09;;;;;;;25.40;17.75;;;6.20;99.90;;;;;;5040541;28;20104;-37
2024/02/28 10:21:35;;;;;;;27.23;19.08;;;6.20;99.90;;;;;;5040853;28;20033;-34
2024/02/28 10:24:00;;;;;;;25.27;18.52;;;6.30;99.90;;;;;;5040365;28;20036;-34
2024/02/28 10:26:26;;;;;;;25.25;18.38;;;6.40;99.90;;;;;;5039536;28;20051;-36
2024/02/28 10:28:52;;;;;;;25.95;17.75;;;6.50;99.90;;;;;;5040045;28;20021;-34
2024/02/28 10:31:17;;;;;;;24.40;17.20;;;6.50;99.90;;;;;;5040011;28;20425;-37
2024/02/28 10:33:43;;;;;;;23.35;17.27;;;6.60;99.90;;;;;;5040060;28;20048;-34
2024/02/28 10:36:09;;;;;;;24.88;17.50;;;6.60;99.90;;;;;;5039669;28;20128;-33
2024/02/28 10:38:35;;;;;;;26.77;18.88;;;6.60;99.90;;;;;;5039610;28;20112;-34
2024/02/28 10:41:02;;;;;;;23.15;17.42;;;6.70;99.90;;;;;;5040188;28;20551;-33
2024/02/28 10:43:31;;;;;;;31.00;20.35;;;6.70;99.90;;;;;;5039125;28;20032;-35
2024/02/28 10:46:00;;;;;;;30.25;19.45;;;6.70;99.90;;;;;;5039980;28;20102;-41
2024/02/28 10:48:26;;;;;;;33.35;21.75;;;6.70;99.90;;;;;;5039126;28;20112;-33
2024/02/28 10:50:54;;;;;;;25.58;18.92;;;6.70;99.90;;;;;;5039094;28;20021;-32
2024/02/28 10:53:23;;;;;;;24.05;17.08;;;6.70;99.90;;;;;;5039281;28;20029;-32
2024/02/28 10:55:51;;;;;;;22.02;16.13;;;6.80;99.90;;;;;;5038853;28;20032;-31
2024/02/28 10:58:18;;;;;;;22.77;16.08;;;6.80;99.90;;;;;;5041243;28;20052;-32
2024/02/28 11:00:45;;;;;;;19.17;14.45;;;6.90;99.90;;;;;;5040952;28;20107;-32
2024/02/28 11:03:15;;;;;;;19.80;15.38;;;6.90;99.90;;;;;;5039801;28;20116;-36
2024/02/28 11:05:42;;;;;;;24.42;17.52;;;6.90;99.90;;;;;;5038590;28;20028;-34
2024/02/28 11:08:19;;;;;;;21.67;16.10;;;6.90;99.90;;;;;;5039557;28;20053;-37
2024/02/28 11:10:47;;;;;;;21.27;15.88;;;6.90;99.90;;;;;;5039575;28;20029;-34
2024/02/28 11:13:25;;;;;;;20.85;15.32;;;7.00;99.90;;;;;;5038496;28;20161;-34
2024/02/28 11:15:51;;;;;;;20.15;15.63;;;7.10;99.90;;;;;;5039732;28;20105;-31
2024/02/28 11:18:17;;;;;;;21.73;17.17;;;7.10;99.90;;;;;;5038981;28;20669;-30
2024/02/28 11:20:44;;;;;;;25.90;18.27;;;7.20;99.90;;;;;;5038624;28;20480;-31
2024/02/28 11:23:10;;;;;;;25.05;18.20;;;7.20;99.90;;;;;;5039319;28;20021;-37
2024/02/28 11:25:36;;;;;;;24.58;18.05;;;7.20;99.90;;;;;;5038675;28;20033;-34
2024/02/28 11:28:02;;;;;;;24.08;18.48;;;7.30;99.90;;;;;;5038844;28;20040;-33
2024/02/28 11:30:27;;;;;;;21.73;16.92;;;7.30;99.90;;;;;;5038911;28;20089;-33
2024/02/28 11:32:55;;;;;;;21.45;15.90;;;7.30;99.90;;;;;;5038392;28;20605;-31
2024/02/28 11:35:21;;;;;;;22.98;16.55;;;7.40;99.90;;;;;;5038893;28;20071;-31
2024/02/28 11:37:47;;;;;;;20.55;15.60;;;7.40;99.90;;;;;;5039310;28;20079;-38
2024/02/28 11:40:13;;;;;;;21.35;15.80;;;7.50;99.90;;;;;;5038389;28;20475;-34
2024/02/28 11:42:41;;;;;;;21.83;16.15;;;7.50;99.90;;;;;;5039662;28;20068;-35
2024/02/28 11:45:13;;;;;;;19.65;14.20;;;7.50;99.90;;;;;;5039500;28;20033;-30
2024/02/28 11:47:39;;;;;;;19.48;14.32;;;7.50;99.90;;;;;;5034742;28;20059;-34
2024/02/28 11:50:06;;;;;;;21.95;16.10;;;7.50;99.90;;;;;;5039378;28;20070;-35
2024/02/28 11:52:32;;;;;;;20.65;15.90;;;7.50;99.90;;;;;;5038923;28;20219;-35
2024/02/28 11:54:57;;;;;;;24.90;17.10;;;7.60;99.90;;;;;;5039250;28;20029;-37
2024/02/28 11:57:23;;;;;;;24.58;16.90;;;7.60;99.90;;;;;;5038596;28;20559;-33
2024/02/28 11:59:49;;;;;;;23.15;16.67;;;7.60;99.90;;;;;;5039924;28;20637;-36
2024/02/28 12:02:18;;;;;;;19.95;15.73;;;7.70;99.90;;;;;;5038781;28;20687;-35
2024/02/28 12:04:45;;;;;;;20.52;15.30;;;7.90;99.90;;;;;;5039916;28;20061;-32
2024/02/28 12:07:11;;;;;;;19.60;15.05;;;8.00;99.90;;;;;;5039138;28;20086;-33
2024/02/28 12:09:38;;;;;;;17.55;13.68;;;8.10;99.90;;;;;;5038670;28;20040;-33
2024/02/28 12:12:06;;;;;;;18.83;14.73;;;8.30;99.90;;;;;;5038019;28;20037;-36
2024/02/28 12:14:33;;;;;;;16.42;13.18;;;8.40;99.90;;;;;;5038307;28;20090;-33
2024/02/28 12:17:01;;;;;;;15.85;12.88;;;8.40;99.90;;;;;;5039343;28;20125;-32
2024/02/28 12:19:28;;;;;;;20.88;14.80;;;8.50;99.90;;;;;;5038748;28;20140;-33
2024/02/28 12:21:53;;;;;;;23.80;17.48;;;8.50;99.90;;;;;;5038836;28;20096;-30
2024/02/28 12:24:19;;;;;;;23.95;16.85;;;8.60;99.90;;;;;;5038899;28;20025;-33
2024/02/28 12:26:44;;;;;;;20.35;15.13;;;8.50;99.90;;;;;;5039050;28;20383;-31
2024/02/28 12:29:10;;;;;;;20.60;14.63;;;8.50;99.90;;;;;;5038509;28;20021;-32
2024/02/28 12:31:36;;;;;;;20.08;15.80;;;8.50;99.90;;;;;;5038804;28;20041;-33